createdAt,value
2023-10-16T00:01:12.488Z,102604.94
2023-10-16T00:03:43.331Z,102611.06
2023-10-16T00:06:15.408Z,102602.28
2023-10-16T00:08:50.315Z,102610.28
2023-10-16T00:11:19.330Z,102614.69
2023-10-16T00:13:51.004Z,102609.44
2023-10-16T00:16:19.402Z,102605.06
2023-10-16T00:18:47.047Z,102612.81
2023-10-16T00:21:14.632Z,102609.25
2023-10-16T00:23:42.625Z,102603.09
2023-10-16T00:26:14.508Z,102604.88
2023-10-16T00:28:45.811Z,102607.50
2023-10-16T00:31:21.797Z,102610.97
2023-10-16T00:33:52.697Z,102605.69
2023-10-16T00:36:19.680Z,102607.47
2023-10-16T00:38:52.796Z,102614.47
2023-10-16T00:41:25.039Z,102609.25
2023-10-16T00:43:52.144Z,102605.72
2023-10-16T00:46:37.965Z,102607.50
2023-10-16T00:49:08.496Z,102601.50
2023-10-16T00:51:41.930Z,102605.84
2023-10-16T00:54:19.585Z,102598.88
2023-10-16T00:56:53.061Z,102605.84
2023-10-16T00:59:19.687Z,102602.34
2023-10-16T01:01:47.438Z,102597.03
2023-10-16T01:04:15.537Z,102594.41
2023-10-16T01:06:42.757Z,102589.97
2023-10-16T01:09:09.546Z,102583.00
2023-10-16T01:11:39.060Z,102591.66
2023-10-16T01:14:06.682Z,102586.38
2023-10-16T01:16:33.926Z,102584.56
2023-10-16T01:19:07.778Z,102580.16
2023-10-16T01:21:34.797Z,102593.28
2023-10-16T01:24:04.986Z,102594.09
2023-10-16T01:26:31.451Z,102590.59
2023-10-16T01:28:57.887Z,102586.22
2023-10-16T01:31:24.645Z,102577.44
2023-10-16T01:33:52.442Z,102574.81
2023-10-16T01:36:18.961Z,102581.81
2023-10-16T01:38:45.352Z,102581.00
2023-10-16T01:41:14.896Z,102572.28
2023-10-16T01:43:44.333Z,102585.34
2023-10-16T01:46:13.673Z,102589.66
2023-10-16T01:48:43.172Z,102588.00
2023-10-16T01:51:10.488Z,102587.22
2023-10-16T01:53:44.171Z,102592.50
2023-10-16T01:56:16.458Z,102584.69
2023-10-16T01:58:47.590Z,102580.25
2023-10-16T02:01:21.640Z,102573.16
2023-10-16T02:03:49.699Z,102576.59
2023-10-16T02:06:17.477Z,102575.75
2023-10-16T02:08:46.622Z,102572.28
2023-10-16T02:11:13.622Z,102575.81
2023-10-16T02:13:44.558Z,102565.28
2023-10-16T02:16:14.095Z,102573.19
2023-10-16T02:18:46.762Z,102567.91
2023-10-16T02:21:14.429Z,102563.59
2023-10-16T02:23:47.125Z,102560.13
2023-10-16T02:26:19.380Z,102567.19
2023-10-16T02:28:54.772Z,102562.84
2023-10-16T02:31:21.930Z,102562.84
2023-10-16T02:33:56.689Z,102561.13
2023-10-16T02:36:23.637Z,102557.66
2023-10-16T02:38:54.489Z,102559.44
2023-10-16T02:41:21.195Z,102556.00
2023-10-16T02:43:48.247Z,102548.09
2023-10-16T02:46:15.311Z,102553.34
2023-10-16T02:48:42.780Z,102545.53
2023-10-16T02:51:13.312Z,102544.63
2023-10-16T02:53:42.575Z,102550.81
2023-10-16T02:56:09.930Z,102556.00
2023-10-16T02:58:56.222Z,102560.44
2023-10-16T03:01:23.463Z,102559.59
2023-10-16T03:03:50.470Z,102551.75
2023-10-16T03:06:17.954Z,102551.69
2023-10-16T03:08:49.680Z,102550.81
2023-10-16T03:11:16.969Z,102546.38
2023-10-16T03:13:49.031Z,102547.22
2023-10-16T03:16:24.103Z,102548.94
2023-10-16T03:18:51.609Z,102551.56
2023-10-16T03:21:27.949Z,102555.88
2023-10-16T03:23:54.693Z,102554.09
2023-10-16T03:26:32.465Z,102556.75
2023-10-16T03:29:06.590Z,102553.25
2023-10-16T03:31:37.404Z,102553.25
2023-10-16T03:34:04.432Z,102550.69
2023-10-16T03:36:30.973Z,102552.41
2023-10-16T03:38:58.686Z,102550.63
2023-10-16T03:41:25.224Z,102547.09
2023-10-16T03:44:00.020Z,102543.63
2023-10-16T03:46:27.860Z,102548.94
2023-10-16T03:48:56.070Z,102553.25
2023-10-16T03:51:22.610Z,102548.00
2023-10-16T03:53:53.412Z,102549.75
2023-10-16T03:56:20.932Z,102555.88
2023-10-16T03:58:47.879Z,102550.69
2023-10-16T04:01:18.292Z,102551.50
2023-10-16T04:03:52.016Z,102543.63
2023-10-16T04:06:22.250Z,102543.56
2023-10-16T04:08:50.391Z,102541.84
2023-10-16T04:11:17.895Z,102537.53
2023-10-16T04:13:50.286Z,102539.25
2023-10-16T04:16:36.603Z,102542.78
2023-10-16T04:19:26.267Z,102537.63
2023-10-16T04:21:52.754Z,102536.78
2023-10-16T04:24:28.428Z,102540.28
2023-10-16T04:27:19.057Z,102537.63
2023-10-16T04:30:13.344Z,102535.75
2023-10-16T04:32:57.260Z,102536.59
2023-10-16T04:35:33.152Z,102533.97
2023-10-16T04:38:19.629Z,102536.53
2023-10-16T04:41:08.788Z,102540.09
2023-10-16T04:44:01.103Z,102532.28
2023-10-16T04:46:47.511Z,102525.28
2023-10-16T04:49:15.464Z,102523.50
2023-10-16T04:51:53.681Z,102521.69
2023-10-16T04:54:41.659Z,102518.16
2023-10-16T04:57:08.081Z,102498.94
2023-10-16T04:59:38.193Z,102501.50
2023-10-16T05:02:23.276Z,102500.72
2023-10-16T05:05:19.104Z,102510.31
2023-10-16T05:07:54.698Z,102505.16
2023-10-16T05:10:40.980Z,102502.53
2023-10-16T05:13:40.797Z,102499.91
2023-10-16T05:16:26.415Z,102495.56
2023-10-16T05:19:04.290Z,102489.38
2023-10-16T05:24:30.773Z,102498.09
2023-10-16T05:27:15.530Z,102499.03
2023-10-16T05:30:00.839Z,102491.16
2023-10-16T05:32:45.786Z,102494.66
2023-10-16T05:35:30.573Z,102491.16
2023-10-16T05:38:15.449Z,102495.47
2023-10-16T05:41:01.345Z,102490.22
2023-10-16T05:43:46.243Z,102500.72
2023-10-16T05:46:31.100Z,102492.84
2023-10-16T05:49:15.834Z,102502.53
2023-10-16T05:52:00.790Z,102495.53
2023-10-16T05:54:45.575Z,102494.66
2023-10-16T05:57:37.957Z,102488.53
2023-10-16T06:00:23.476Z,102484.09
2023-10-16T06:03:08.765Z,102491.16
2023-10-16T06:05:54.034Z,102499.16
2023-10-16T06:08:38.861Z,102499.16
2023-10-16T06:11:23.472Z,102501.78
2023-10-16T06:14:08.616Z,102500.16
2023-10-16T06:16:36.262Z,102503.66
2023-10-16T06:19:15.788Z,102500.16
2023-10-16T06:21:58.025Z,102507.16
2023-10-16T06:24:33.929Z,102509.69
2023-10-16T06:27:03.107Z,102513.16
2023-10-16T06:29:36.565Z,102511.41
2023-10-16T06:32:19.780Z,102512.31
2023-10-16T06:34:50.557Z,102516.66
2023-10-16T06:37:22.420Z,102520.13
2023-10-16T06:39:50.551Z,102521.00
2023-10-16T06:42:19.932Z,102525.34
2023-10-16T06:45:09.563Z,102518.34
2023-10-16T06:47:36.773Z,102512.25
2023-10-16T06:50:23.893Z,102516.56
2023-10-16T06:52:53.765Z,102513.94
2023-10-16T06:55:22.425Z,102512.16
2023-10-16T06:57:49.320Z,102516.53
2023-10-16T07:00:26.855Z,102518.22
2023-10-16T07:02:58.710Z,102516.38
2023-10-16T07:05:26.730Z,102519.81
2023-10-16T07:07:57.723Z,102525.03
2023-10-16T07:10:25.705Z,102530.25
2023-10-16T07:13:01.793Z,102528.44
2023-10-16T07:15:31.978Z,102525.81
2023-10-16T07:18:08.517Z,102520.56
2023-10-16T07:20:53.179Z,102526.56
2023-10-16T07:23:21.484Z,102530.13
2023-10-16T07:26:00.991Z,102527.47
2023-10-16T07:28:29.108Z,102524.78
2023-10-16T07:31:00.703Z,102526.53
2023-10-16T07:33:28.495Z,102525.59
2023-10-16T07:35:56.738Z,102532.56
2023-10-16T07:38:27.145Z,102535.94
2023-10-16T07:40:59.347Z,102528.91
2023-10-16T07:43:30.346Z,102526.19
2023-10-16T07:46:12.872Z,102527.88
2023-10-16T07:48:53.330Z,102515.56
2023-10-16T07:51:21.504Z,102515.50
2023-10-16T07:53:51.913Z,102513.69
2023-10-16T07:56:26.444Z,102508.41
2023-10-16T07:58:58.265Z,102520.66
2023-10-16T08:01:43.050Z,102511.03
2023-10-16T08:04:20.893Z,102521.38
2023-10-16T08:06:48.933Z,102525.75
2023-10-16T08:09:25.246Z,102527.41
2023-10-16T08:11:59.227Z,102522.06
2023-10-16T08:14:28.082Z,102526.38
2023-10-16T08:17:18.213Z,102527.22
2023-10-16T08:19:46.970Z,102521.88
2023-10-16T08:22:19.366Z,102534.03
2023-10-16T08:24:58.973Z,102540.03
2023-10-16T08:27:39.061Z,102526.03
2023-10-16T08:30:30.767Z,102527.66
2023-10-16T08:33:07.510Z,102524.06
2023-10-16T08:35:43.602Z,102517.88
2023-10-16T08:38:15.693Z,102515.09
2023-10-16T08:40:45.617Z,102515.91
2023-10-16T08:43:18.260Z,102521.88
2023-10-16T08:45:49.792Z,102515.63
2023-10-16T08:48:20.144Z,102524.34
2023-10-16T08:50:59.740Z,102521.66
2023-10-16T08:53:33.170Z,102528.59
2023-10-16T08:56:04.388Z,102531.13
2023-10-16T08:58:50.817Z,102522.25
2023-10-16T09:01:19.225Z,102527.41
2023-10-16T09:03:55.812Z,102524.75
2023-10-16T09:06:23.810Z,102526.41
2023-10-16T09:08:55.451Z,102540.38
2023-10-16T09:11:23.645Z,102535.06
2023-10-16T09:13:53.986Z,102540.28
2023-10-16T09:16:24.711Z,102529.75
2023-10-16T09:18:54.349Z,102530.66
2023-10-16T09:21:24.898Z,102531.44
2023-10-16T09:23:52.833Z,102530.53
2023-10-16T09:26:29.974Z,102530.41
2023-10-16T09:29:05.386Z,102532.16
2023-10-16T09:31:32.898Z,102540.81
2023-10-16T09:33:59.606Z,102538.19
2023-10-16T09:36:31.002Z,102529.38
2023-10-16T09:39:00.971Z,102525.84
2023-10-16T09:41:27.510Z,102528.41
2023-10-16T09:44:07.485Z,102525.75
2023-10-16T09:46:47.663Z,102530.06
2023-10-16T09:49:16.170Z,102534.38
2023-10-16T09:51:59.436Z,102538.66
2023-10-16T09:54:32.427Z,102533.31
2023-10-16T09:57:00.740Z,102528.81
2023-10-16T09:59:41.352Z,102533.06
2023-10-16T10:02:26.835Z,102534.75
2023-10-16T10:05:00.459Z,102538.16
2023-10-16T10:07:41.918Z,102532.72
2023-10-16T10:10:27.537Z,102529.19
2023-10-16T10:12:59.190Z,102524.66
2023-10-16T10:15:29.816Z,102525.47
2023-10-16T10:18:02.734Z,102527.16
2023-10-16T10:20:33.413Z,102527.03
2023-10-16T10:23:07.862Z,102528.72
2023-10-16T10:25:42.784Z,102520.75
2023-10-16T10:28:24.353Z,102528.53
2023-10-16T10:30:52.035Z,102530.88
2023-10-16T10:33:43.590Z,102528.16
2023-10-16T10:36:31.830Z,102526.34
2023-10-16T10:39:23.380Z,102533.25
2023-10-16T10:42:07.085Z,102530.59
2023-10-16T10:44:38.713Z,102522.53
2023-10-16T10:47:31.981Z,102525.94
2023-10-16T10:50:13.178Z,102525.84
2023-10-16T10:52:44.693Z,102524.06
2023-10-16T10:55:22.736Z,102517.91
2023-10-16T10:58:00.142Z,102513.28
2023-10-16T11:00:30.603Z,102525.41
2023-10-16T11:03:02.850Z,102507.84
2023-10-16T11:05:32.278Z,102505.13
2023-10-16T11:08:18.938Z,102515.34
2023-10-16T11:10:48.481Z,102514.28
2023-10-16T11:13:16.942Z,102515.97
2023-10-16T11:15:47.723Z,102509.03
2023-10-16T11:18:19.658Z,102514.16
2023-10-16T11:20:51.139Z,102513.94
2023-10-16T11:23:18.704Z,102505.03
2023-10-16T11:25:53.434Z,102501.56
2023-10-16T11:28:29.591Z,102498.16
2023-10-16T11:30:58.198Z,102495.53
2023-10-16T11:33:36.478Z,102491.88
2023-10-16T11:36:04.705Z,102490.84
2023-10-16T11:38:35.267Z,102483.88
2023-10-16T11:41:17.816Z,102481.34
2023-10-16T11:43:53.388Z,102480.50
2023-10-16T11:46:29.605Z,102482.03
2023-10-16T11:49:24.031Z,102477.69
2023-10-16T11:51:53.103Z,102466.25
2023-10-16T11:54:21.700Z,102461.91
2023-10-16T11:56:58.728Z,102461.81
2023-10-16T11:59:27.158Z,102457.31
2023-10-16T12:02:02.454Z,102457.22
2023-10-16T12:04:30.916Z,102459.78
2023-10-16T12:06:59.216Z,102457.09
2023-10-16T12:09:28.291Z,102458.69
2023-10-16T12:11:55.617Z,102448.91
2023-10-16T12:14:23.413Z,102445.38
2023-10-16T12:16:50.078Z,102442.59
2023-10-16T12:19:18.353Z,102437.19
2023-10-16T12:21:49.214Z,102441.53
2023-10-16T12:24:17.443Z,102438.91
2023-10-16T12:26:43.915Z,102438.91
2023-10-16T12:29:10.648Z,102438.69
2023-10-16T12:31:37.343Z,102442.09
2023-10-16T12:34:04.589Z,102427.25
2023-10-16T12:36:32.507Z,102435.97
2023-10-16T12:38:58.918Z,102428.94
2023-10-16T12:41:25.387Z,102421.03
2023-10-16T12:43:51.849Z,102414.06
2023-10-16T12:46:18.947Z,102413.19
2023-10-16T12:48:45.988Z,102418.38
2023-10-16T12:51:12.850Z,102419.13
2023-10-16T12:53:40.589Z,102422.59
2023-10-16T12:56:07.701Z,102415.53
2023-10-16T12:58:35.157Z,102418.97
2023-10-16T13:01:11.843Z,102416.34
2023-10-16T13:03:39.062Z,102422.44
2023-10-16T13:06:08.400Z,102415.44
2023-10-16T13:08:35.358Z,102418.91
2023-10-16T13:11:02.106Z,102418.00
2023-10-16T13:13:28.691Z,102413.63
2023-10-16T13:15:55.677Z,102418.78
2023-10-16T13:18:28.763Z,102420.44
2023-10-16T13:21:05.383Z,102419.44
2023-10-16T13:23:45.937Z,102423.75
2023-10-16T13:26:15.935Z,102418.44
2023-10-16T13:28:44.020Z,102412.22
2023-10-16T13:31:10.653Z,102411.31
2023-10-16T13:33:42.171Z,102407.69
2023-10-16T13:36:13.189Z,102412.84
2023-10-16T13:38:40.994Z,102408.44
2023-10-16T13:41:20.169Z,102411.91
2023-10-16T13:43:47.611Z,102415.34
2023-10-16T13:46:15.390Z,102402.03
2023-10-16T13:48:47.085Z,102400.34
2023-10-16T13:51:17.307Z,102402.03
2023-10-16T13:53:47.276Z,102402.84
2023-10-16T13:56:17.189Z,102401.94
2023-10-16T13:58:46.316Z,102400.22
2023-10-16T14:01:15.286Z,102400.22
2023-10-16T14:03:43.412Z,102390.59
2023-10-16T14:06:13.933Z,102401.09
2023-10-16T14:08:43.362Z,102396.69
2023-10-16T14:11:13.111Z,102396.53
2023-10-16T14:13:41.372Z,102392.22
2023-10-16T14:16:19.268Z,102394.88
2023-10-16T14:18:46.150Z,102389.69
2023-10-16T14:21:14.031Z,102391.50
2023-10-16T14:23:45.049Z,102381.84
2023-10-16T14:26:12.388Z,102380.13
2023-10-16T14:28:45.420Z,102387.19
2023-10-16T14:31:15.187Z,102390.66
2023-10-16T14:33:42.063Z,102393.22
2023-10-16T14:36:10.857Z,102393.31
2023-10-16T14:38:38.507Z,102389.81
2023-10-16T14:41:10.614Z,102388.94
2023-10-16T14:43:37.884Z,102385.41
2023-10-16T14:46:12.124Z,102383.69
2023-10-16T14:48:46.040Z,102385.47
2023-10-16T14:51:20.054Z,102380.25
2023-10-16T14:53:50.054Z,102380.25
2023-10-16T14:56:19.831Z,102380.25
2023-10-16T15:01:18.068Z,102377.66
2023-10-16T15:03:45.899Z,102380.38
2023-10-16T15:06:14.250Z,102374.31
2023-10-16T15:08:42.400Z,102373.44
2023-10-16T15:11:11.743Z,102371.72
2023-10-16T15:13:40.028Z,102373.53
2023-10-16T15:16:08.634Z,102364.88
2023-10-16T15:18:35.890Z,102371.88
2023-10-16T15:21:02.893Z,102362.38
2023-10-16T15:23:30.459Z,102368.56
2023-10-16T15:25:58.490Z,102372.03
2023-10-16T15:28:41.365Z,102368.56
2023-10-16T15:31:14.570Z,102363.28
2023-10-16T15:33:42.307Z,102365.09
2023-10-16T15:36:09.056Z,102371.19
2023-10-16T15:38:35.602Z,102380.00
2023-10-16T15:41:02.071Z,102370.38
2023-10-16T15:43:28.835Z,102375.72
2023-10-16T15:45:55.660Z,102369.63
2023-10-16T15:48:22.317Z,102368.03
2023-10-16T15:50:50.150Z,102367.22
2023-10-16T15:53:18.247Z,102375.06
2023-10-16T15:55:48.051Z,102363.84
2023-10-16T15:58:14.868Z,102358.56
2023-10-16T16:00:42.745Z,102360.53
2023-10-16T16:03:10.051Z,102364.28
2023-10-16T16:05:38.055Z,102355.63
2023-10-16T16:08:07.158Z,102351.34
2023-10-16T16:10:34.585Z,102359.41
2023-10-16T16:13:04.565Z,102350.00
2023-10-16T16:15:31.201Z,102358.06
2023-10-16T16:18:06.282Z,102359.16
2023-10-16T16:20:33.488Z,102366.25
2023-10-16T16:23:00.112Z,102361.97
2023-10-16T16:25:29.816Z,102362.09
2023-10-16T16:27:56.255Z,102357.81
2023-10-16T16:30:23.108Z,102365.88
2023-10-16T16:32:49.983Z,102369.59
2023-10-16T16:35:17.473Z,102369.75
2023-10-16T16:37:55.090Z,102367.19
2023-10-16T16:40:23.019Z,102370.78
2023-10-16T16:42:50.332Z,102372.53
2023-10-16T16:45:18.305Z,102374.44
2023-10-16T16:47:45.796Z,102380.78
2023-10-16T16:50:15.319Z,102380.91
2023-10-16T16:52:42.228Z,102370.44
2023-10-16T16:55:10.606Z,102376.66
2023-10-16T16:57:38.072Z,102370.66
2023-10-16T17:00:06.406Z,102372.47
2023-10-16T17:02:33.013Z,102371.69
2023-10-16T17:04:59.533Z,102368.31
2023-10-16T17:07:31.146Z,102379.81
2023-10-16T17:09:57.946Z,102380.75
2023-10-16T17:12:24.386Z,102384.34
2023-10-16T17:14:53.397Z,102377.31
2023-10-16T17:17:20.142Z,102381.72
2023-10-16T17:19:46.624Z,102374.75
2023-10-16T17:22:13.812Z,102380.09
2023-10-16T17:24:43.838Z,102374.09
2023-10-16T17:27:10.461Z,102381.16
2023-10-16T17:29:37.019Z,102378.69
2023-10-16T17:32:03.427Z,102377.00
2023-10-16T17:34:30.130Z,102383.97
2023-10-16T17:36:59.348Z,102382.31
2023-10-16T17:39:27.298Z,102379.75
2023-10-16T17:41:53.833Z,102391.16
2023-10-16T17:44:20.235Z,102391.16
2023-10-16T17:46:47.960Z,102390.31
2023-10-16T17:49:15.367Z,102386.81
2023-10-16T17:51:41.895Z,102389.50
2023-10-16T17:54:09.970Z,102387.81
2023-10-16T17:56:42.254Z,102387.81
2023-10-16T17:59:09.481Z,102388.72
2023-10-16T18:01:36.045Z,102385.19
2023-10-16T18:04:02.661Z,102392.28
2023-10-16T18:06:30.522Z,102384.44
2023-10-16T18:08:56.965Z,102390.56
2023-10-16T18:11:23.383Z,102391.41
2023-10-16T18:13:49.794Z,102384.44
2023-10-16T18:16:16.228Z,102380.97
2023-10-16T18:18:42.775Z,102380.25
2023-10-16T18:21:10.280Z,102377.69
2023-10-16T18:23:37.105Z,102375.97
2023-10-16T18:26:05.039Z,102369.84
2023-10-16T18:28:32.880Z,102360.22
2023-10-16T18:30:59.325Z,102367.13
2023-10-16T18:33:26.263Z,102362.78
2023-10-16T18:35:54.014Z,102367.28
2023-10-16T18:38:22.164Z,102364.69
2023-10-16T18:40:48.571Z,102367.44
2023-10-16T18:43:16.345Z,102369.31
2023-10-16T18:45:44.268Z,102372.00
2023-10-16T18:48:11.173Z,102371.88
2023-10-16T18:50:37.697Z,102369.19
2023-10-16T18:53:05.110Z,102372.72
2023-10-16T18:55:31.604Z,102371.88
2023-10-16T18:57:58.759Z,102373.69
2023-10-16T19:00:26.212Z,102369.38
2023-10-16T19:02:57.401Z,102374.63
2023-10-16T19:05:24.971Z,102375.47
2023-10-16T19:07:52.516Z,102383.34
2023-10-16T19:10:24.526Z,102371.06
2023-10-16T19:12:54.628Z,102371.75
2023-10-16T19:15:23.067Z,102368.22
2023-10-16T19:17:52.971Z,102360.34
2023-10-16T19:20:23.814Z,102363.88
2023-10-16T19:22:50.456Z,102361.25
2023-10-16T19:25:16.915Z,102359.56
2023-10-16T19:27:43.386Z,102359.56
2023-10-16T19:30:12.731Z,102367.59
2023-10-16T19:32:47.004Z,102373.81
2023-10-16T19:35:17.395Z,102371.28
2023-10-16T19:37:44.985Z,102371.31
2023-10-16T19:40:13.910Z,102365.22
2023-10-16T19:42:44.195Z,102367.06
2023-10-16T19:45:12.141Z,102363.66
2023-10-16T19:47:54.795Z,102370.78
2023-10-16T19:50:21.388Z,102366.47
2023-10-16T19:52:47.993Z,102369.94
2023-10-16T19:55:22.170Z,102369.16
2023-10-16T19:57:48.628Z,102378.03
2023-10-16T20:00:18.947Z,102379.84
2023-10-16T20:02:46.743Z,102375.50
2023-10-16T20:05:14.449Z,102380.88
2023-10-16T20:07:47.323Z,102373.00
2023-10-16T20:10:18.443Z,102375.56
2023-10-16T20:12:46.764Z,102374.56
2023-10-16T20:15:16.430Z,102380.66
2023-10-16T20:17:44.127Z,102388.63
2023-10-16T20:20:24.373Z,102388.75
2023-10-16T20:23:04.093Z,102389.59
2023-10-16T20:25:34.033Z,102388.81
2023-10-16T20:28:03.548Z,102394.06
2023-10-16T20:30:30.369Z,102394.91
2023-10-16T20:32:57.861Z,102395.88
2023-10-16T20:35:25.590Z,102396.88
2023-10-16T20:37:53.412Z,102394.38
2023-10-16T20:40:22.894Z,102391.78
2023-10-16T20:42:51.261Z,102398.75
2023-10-16T20:45:19.975Z,102395.28
2023-10-16T20:47:50.637Z,102395.22
2023-10-16T20:50:33.029Z,102395.16
2023-10-16T20:53:01.022Z,102397.91
2023-10-16T20:55:27.976Z,102397.13
2023-10-16T20:57:55.708Z,102399.81
2023-10-16T21:00:29.465Z,102403.25
2023-10-16T21:03:04.873Z,102401.53
2023-10-16T21:05:33.849Z,102396.28
2023-10-16T21:08:00.946Z,102399.91
2023-10-16T21:10:29.026Z,102388.63
2023-10-16T21:12:56.970Z,102392.16
2023-10-16T21:15:25.698Z,102394.91
2023-10-16T21:17:54.280Z,102393.25
2023-10-16T21:20:20.851Z,102400.38
2023-10-16T21:22:49.672Z,102396.09
2023-10-16T21:25:17.448Z,102398.88
2023-10-16T21:27:46.970Z,102403.28
2023-10-16T21:30:19.699Z,102406.91
2023-10-16T21:32:47.932Z,102414.84
2023-10-16T21:35:14.774Z,102414.00
2023-10-16T21:37:44.694Z,102422.78
2023-10-16T21:40:18.388Z,102417.63
2023-10-16T21:42:47.633Z,102422.06
2023-10-16T21:45:14.653Z,102413.44
2023-10-16T21:47:43.892Z,102425.78
2023-10-16T21:50:10.855Z,102416.06
2023-10-16T21:52:37.459Z,102403.00
2023-10-16T21:55:07.459Z,102408.38
2023-10-16T21:57:34.869Z,102412.00
2023-10-16T22:00:01.707Z,102405.97
2023-10-16T22:02:28.623Z,102414.78
2023-10-16T22:04:55.287Z,102404.28
2023-10-16T22:07:26.501Z,102396.38
2023-10-16T22:09:55.106Z,102402.63
2023-10-16T22:12:21.644Z,102398.31
2023-10-16T22:14:48.977Z,102392.22
2023-10-16T22:17:15.599Z,102396.69
2023-10-16T22:19:42.201Z,102393.25
2023-10-16T22:22:09.026Z,102396.78
2023-10-16T22:24:39.951Z,102396.78
2023-10-16T22:27:08.623Z,102390.63
2023-10-16T22:29:35.362Z,102389.72
2023-10-16T22:32:01.896Z,102398.59
2023-10-16T22:34:29.111Z,102397.81
2023-10-16T22:36:56.038Z,102408.28
2023-10-16T22:39:26.237Z,102400.47
2023-10-16T22:41:54.925Z,102398.75
2023-10-16T22:44:21.916Z,102399.63
2023-10-16T22:46:51.174Z,102399.72
2023-10-16T22:49:21.484Z,102397.22
2023-10-16T22:51:48.756Z,102392.84
2023-10-16T22:54:16.843Z,102387.63
2023-10-16T22:56:43.595Z,102380.66
2023-10-16T22:59:10.111Z,102385.00
2023-10-16T23:01:40.672Z,102385.03
2023-10-16T23:04:08.217Z,102383.38
2023-10-16T23:06:35.471Z,102374.69
2023-10-16T23:09:01.966Z,102375.53
2023-10-16T23:11:29.130Z,102367.72
2023-10-16T23:13:56.897Z,102375.63
2023-10-16T23:16:29.100Z,102374.78
2023-10-16T23:18:56.645Z,102373.03
2023-10-16T23:21:26.320Z,102376.50
2023-10-16T23:23:53.060Z,102375.56
2023-10-16T23:26:22.651Z,102380.00
2023-10-16T23:28:49.472Z,102366.91
2023-10-16T23:31:16.162Z,102369.56
2023-10-16T23:33:55.092Z,102374.81
2023-10-16T23:36:27.221Z,102374.78
2023-10-16T23:38:54.114Z,102376.53
2023-10-16T23:41:20.779Z,102375.75
2023-10-16T23:43:53.355Z,102373.06
2023-10-16T23:46:22.407Z,102367.00
2023-10-16T23:48:50.347Z,102368.72
2023-10-16T23:51:23.160Z,102367.81
2023-10-16T23:53:50.322Z,102370.44
2023-10-16T23:56:18.486Z,102365.19
2023-10-16T23:58:52.183Z,102360.13
